createdAt,value
2022-08-02T14:16:35.173Z,82.00
2022-08-02T14:19:23.007Z,55.10
2022-08-02T14:22:12.386Z,55.60
2022-08-02T14:25:09.278Z,55.00
2022-08-02T14:27:57.038Z,54.10
2022-08-02T14:30:44.253Z,52.40
2022-08-02T14:33:32.856Z,51.50
2022-08-02T14:36:27.680Z,45.50
2022-08-02T14:39:15.212Z,45.70
2022-08-02T14:42:02.430Z,44.40
2022-08-02T14:44:49.390Z,44.80
2022-08-02T14:47:36.771Z,44.50
2022-08-02T14:50:25.392Z,43.70
2022-08-02T14:53:14.579Z,43.50
2022-08-02T14:56:01.604Z,43.60
2022-08-02T14:58:48.813Z,43.00
2022-08-02T15:01:35.953Z,43.50
2022-08-02T15:04:23.177Z,44.50
2022-08-02T15:07:12.185Z,44.00
2022-08-02T15:09:59.208Z,43.90
2022-08-02T15:12:49.788Z,43.10
2022-08-02T15:15:43.066Z,44.90
2022-08-02T15:18:33.621Z,45.20
2022-08-02T15:21:40.288Z,45.10
2022-08-02T15:24:30.061Z,44.30
2022-08-02T15:27:17.932Z,43.90
2022-08-02T15:30:06.201Z,43.80
2022-08-02T15:32:53.903Z,43.90
2022-08-02T15:35:41.813Z,44.60
2022-08-02T15:38:28.843Z,44.50
2022-08-02T15:41:19.641Z,44.60
2022-08-02T15:44:10.099Z,43.30
2022-08-02T15:46:57.117Z,44.60
2022-08-02T15:49:48.543Z,43.60
2022-08-02T15:52:35.760Z,43.20
2022-08-02T15:55:25.325Z,42.60
2022-08-02T15:58:17.781Z,42.00
2022-08-02T16:01:05.465Z,43.40
2022-08-02T16:03:52.810Z,43.50
2022-08-02T16:06:40.095Z,43.70
2022-08-02T16:09:28.682Z,44.30
2022-08-02T16:12:16.185Z,43.90
2022-08-02T16:15:06.611Z,44.10
2022-08-02T16:17:54.757Z,44.20
2022-08-02T16:20:42.295Z,43.90
2022-08-02T16:23:59.172Z,43.70
2022-08-02T16:26:36.743Z,43.50
2022-08-02T16:29:23.759Z,43.60
2022-08-02T16:32:15.285Z,43.30
2022-08-02T16:35:08.619Z,45.30
2022-08-02T16:37:56.680Z,44.90
2022-08-02T16:40:44.140Z,44.60
2022-08-02T16:43:31.172Z,44.60
2022-08-02T16:46:20.449Z,44.10
2022-08-02T16:50:04.929Z,43.20
2022-08-02T16:52:16.633Z,44.50
2022-08-02T16:55:10.946Z,43.80
2022-08-02T16:57:58.756Z,43.20
2022-08-02T17:00:47.843Z,41.90
2022-08-02T17:03:56.108Z,42.70
2022-08-02T17:10:03.028Z,43.80
2022-08-02T17:12:53.600Z,43.10
2022-08-02T17:16:17.105Z,43.80
2022-08-02T17:18:49.333Z,43.20
2022-08-02T17:21:37.060Z,42.90
2022-08-02T17:24:25.855Z,42.70
2022-08-02T17:27:13.632Z,44.60
2022-08-02T17:30:02.806Z,44.10
2022-08-02T17:32:50.182Z,44.00
2022-08-02T17:35:43.282Z,44.70
2022-08-02T17:38:50.275Z,44.30
2022-08-02T17:41:49.416Z,44.20
2022-08-02T17:44:38.642Z,47.10
2022-08-02T17:47:30.872Z,48.20
2022-08-02T17:50:18.982Z,48.90
2022-08-02T17:53:07.739Z,48.70
2022-08-02T17:55:54.808Z,47.90
2022-08-02T17:58:51.992Z,49.50
2022-08-02T18:01:52.645Z,49.90
2022-08-02T18:04:40.646Z,48.50
2022-08-02T18:07:50.050Z,49.50
2022-08-02T18:10:34.568Z,51.70
2022-08-02T18:13:22.079Z,52.70
2022-08-02T18:16:20.874Z,53.50
2022-08-02T18:19:16.896Z,53.30
2022-08-02T18:22:26.383Z,53.30
2022-08-02T18:25:18.402Z,53.80
2022-08-02T18:28:22.170Z,54.10
2022-08-02T18:31:22.433Z,55.10
2022-08-02T18:34:10.631Z,54.70
2022-08-02T18:36:57.794Z,55.10
2022-08-02T18:39:51.442Z,56.10
2022-08-02T18:42:39.471Z,56.40
2022-08-02T18:45:43.302Z,56.60
2022-08-02T18:48:37.505Z,56.90
2022-08-02T18:51:25.215Z,57.30
2022-08-02T18:54:26.804Z,57.20
2022-08-02T18:58:17.527Z,57.20
2022-08-02T19:00:25.554Z,57.10
2022-08-02T19:03:16.650Z,57.50
2022-08-02T19:06:06.775Z,57.80
2022-08-02T19:12:01.558Z,58.50
2022-08-02T19:14:48.628Z,58.50
2022-08-02T19:17:53.727Z,58.30
2022-08-02T19:20:48.386Z,58.10
2022-08-02T19:23:37.643Z,58.80
2022-08-02T19:26:42.326Z,58.60
2022-08-02T19:29:42.766Z,58.80
2022-08-02T19:32:42.620Z,59.30
2022-08-02T19:36:01.761Z,59.40
2022-08-02T19:38:52.268Z,59.70
2022-08-02T19:41:43.855Z,59.50
2022-08-02T19:44:34.030Z,60.40
2022-08-02T19:47:21.561Z,61.30
2022-08-02T19:50:12.944Z,61.50
2022-08-02T19:52:59.699Z,61.20
2022-08-02T19:56:00.834Z,61.40
2022-08-02T19:58:51.500Z,61.80
2022-08-02T20:01:42.134Z,62.40
2022-08-02T20:04:32.165Z,63.00
2022-08-02T20:07:48.257Z,63.30
2022-08-02T20:10:26.664Z,63.60
2022-08-02T20:13:15.041Z,64.20
2022-08-02T20:16:02.408Z,64.60
2022-08-02T20:18:51.131Z,65.00
2022-08-02T20:21:43.541Z,65.60
2022-08-02T20:24:39.193Z,66.20
2022-08-02T20:27:30.160Z,66.30
2022-08-02T20:30:18.657Z,66.50
2022-08-02T20:33:21.586Z,66.80
2022-08-02T20:36:09.284Z,67.30
2022-08-02T20:38:56.915Z,67.90
2022-08-02T20:41:45.702Z,68.10
2022-08-02T20:44:36.236Z,68.60
2022-08-02T20:47:27.659Z,68.80
2022-08-02T20:50:31.625Z,69.20
2022-08-02T20:53:24.103Z,69.40
2022-08-02T20:56:14.075Z,69.60
2022-08-02T20:59:03.995Z,70.20
2022-08-02T21:02:02.779Z,70.50
2022-08-02T21:04:50.962Z,70.50
2022-08-02T21:07:37.864Z,86.30
2022-08-02T21:10:25.153Z,71.50
2022-08-02T21:16:21.811Z,71.20
2022-08-02T21:19:10.503Z,71.00
2022-08-02T21:21:59.556Z,71.40
2022-08-02T21:24:47.406Z,71.80
2022-08-02T21:27:53.152Z,72.10
2022-08-02T21:30:41.732Z,72.40
2022-08-02T21:33:29.469Z,72.90
2022-08-02T21:36:36.363Z,72.90
2022-08-02T21:39:26.512Z,73.10
2022-08-02T21:42:22.442Z,73.10
2022-08-02T21:45:17.312Z,73.40
2022-08-02T21:48:07.255Z,73.40
2022-08-02T21:50:55.205Z,73.70
2022-08-02T21:53:43.188Z,73.90
2022-08-02T21:56:53.499Z,74.10
2022-08-02T21:59:40.747Z,74.30
2022-08-02T22:02:32.620Z,74.30
2022-08-02T22:05:19.817Z,74.60
2022-08-02T22:08:07.517Z,74.80
2022-08-02T22:11:13.453Z,75.10
2022-08-02T22:14:06.198Z,75.50
2022-08-02T22:16:54.999Z,75.90
2022-08-02T22:19:51.071Z,76.20
2022-08-02T22:22:42.594Z,76.40
2022-08-02T22:28:50.301Z,76.00
2022-08-02T22:31:42.113Z,76.20
2022-08-02T22:34:51.647Z,76.40
2022-08-02T22:38:17.546Z,76.60
2022-08-02T22:40:45.589Z,76.80
2022-08-02T22:43:34.016Z,77.00
2022-08-02T22:46:26.418Z,77.10
2022-08-02T22:49:17.647Z,77.30
2022-08-02T22:52:22.032Z,77.60
2022-08-02T22:55:10.223Z,77.90
2022-08-02T22:58:00.511Z,78.20
2022-08-02T22:58:48.753Z,42.40
2022-08-02T22:59:00.020Z,57.70
2022-08-02T22:59:02.073Z,71.20
2022-08-02T22:59:10.631Z,76.20
2022-08-02T23:00:48.513Z,79.10
2022-08-02T23:03:35.451Z,78.50
2022-08-02T23:06:23.873Z,78.70
2022-08-02T23:09:10.841Z,78.90
2022-08-02T23:11:57.993Z,79.10
2022-08-02T23:14:45.327Z,79.20
2022-08-02T23:17:46.455Z,79.40
2022-08-02T23:20:33.418Z,79.60
2022-08-02T23:23:20.987Z,79.70
2022-08-02T23:26:07.044Z,79.90
2022-08-02T23:28:53.986Z,80.20
2022-08-02T23:31:41.009Z,80.30
2022-08-02T23:34:28.469Z,80.30
2022-08-02T23:37:15.720Z,80.80
2022-08-02T23:40:05.063Z,80.70
2022-08-02T23:42:52.199Z,80.70
2022-08-02T23:45:39.502Z,81.10
2022-08-02T23:48:26.344Z,81.30
2022-08-02T23:51:22.049Z,81.30
2022-08-02T23:54:10.014Z,81.30
2022-08-02T23:56:59.401Z,81.40
2022-08-02T23:59:46.716Z,81.80
